Time;durP1;ratioP1;P1;durP2;ratioP2;P2;SDS_P1;SDS_P2;PMS_P1;PMS_P2;Temp;Humidity;BMP_temperature;BMP_pressure;BME280_temperature;BME280_humidity;BME280_pressure;Samples;Min_cycle;Max_cycle;Signal;HPM_P1;HPM_P2
2022/03/07 00:00:49;;;;;;;9.57;8.53;;;;;;;2.69;43.14;99422.22;4156993;28;20234;-43
2022/03/07 00:02:51;;;;;;;11.50;8.93;;;;;;;1.87;43.87;99446.56;4157497;28;20236;-42
2022/03/07 00:04:53;;;;;;;9.33;8.40;;;;;;;1.79;43.72;99442.84;4152062;28;20686;-42
2022/03/07 00:06:55;;;;;;;11.47;8.53;;;;;;;2.19;43.45;99442.56;4156143;28;20235;-40
2022/03/07 00:08:56;;;;;;;9.83;8.83;;;;;;;2.13;43.41;99441.22;4155858;28;21481;-42
2022/03/07 00:10:59;;;;;;;10.33;8.73;;;;;;;2.47;43.52;99412.50;4159168;28;20231;-41
2022/03/07 00:13:00;;;;;;;9.40;8.40;;;;;;;1.24;44.75;99452.78;4158154;28;20591;-43
2022/03/07 00:15:03;;;;;;;11.77;9.30;;;;;;;1.60;43.89;99462.50;4160558;28;20236;-40
2022/03/07 00:17:05;;;;;;;10.17;8.77;;;;;;;2.71;42.91;99428.19;4160453;28;20305;-40
2022/03/07 00:19:07;;;;;;;9.90;8.80;;;;;;;1.47;45.19;99435.47;4142603;28;20232;-36
2022/03/07 00:21:09;;;;;;;9.83;8.53;;;;;;;2.93;43.00;99427.38;4160418;28;20239;-40
2022/03/07 00:23:11;;;;;;;9.50;8.00;;;;;;;3.29;42.64;99416.75;4158310;28;20279;-39
2022/03/07 00:25:15;;;;;;;9.73;8.73;;;;;;;3.25;42.52;99423.22;4159110;28;20262;-40
2022/03/07 00:27:17;;;;;;;9.83;7.93;;;;;;;3.32;42.36;99421.78;4161468;28;20235;-37
2022/03/07 00:29:19;;;;;;;13.03;8.97;;;;;;;2.01;43.64;99453.44;4160152;28;20269;-41
2022/03/07 00:31:22;;;;;;;9.40;8.40;;;;;;;2.57;42.79;99442.34;4159674;28;20869;-42
2022/03/07 00:33:24;;;;;;;9.50;7.77;;;;;;;2.19;43.97;99437.31;4159559;28;20235;-40
2022/03/07 00:35:26;;;;;;;10.30;8.53;;;;;;;2.52;43.42;99436.63;4154015;28;20645;-37
2022/03/07 00:37:28;;;;;;;8.83;7.83;;;;;;;2.93;43.34;99402.91;4156605;28;20239;-38
2022/03/07 00:39:30;;;;;;;9.73;8.23;;;;;;;2.62;43.09;99439.34;4159658;28;20230;-41
2022/03/07 00:41:31;;;;;;;9.77;8.70;;;;;;;2.64;43.28;99432.22;4159598;28;20227;-38
2022/03/07 00:43:33;;;;;;;11.17;8.37;;;;;;;2.45;43.77;99438.00;4160636;28;20250;-40
2022/03/07 00:45:36;;;;;;;9.30;8.23;;;;;;;2.66;43.08;99445.22;4159720;28;20238;-40
2022/03/07 00:47:38;;;;;;;9.50;8.33;;;;;;;1.44;45.33;99451.41;4159553;28;20238;-39
2022/03/07 00:49:39;;;;;;;9.37;8.33;;;;;;;1.78;44.34;99455.13;4159523;28;20479;-40
2022/03/07 00:51:44;;;;;;;9.50;7.90;;;;;;;2.27;44.15;99434.97;4174090;28;20326;-42
2022/03/07 00:53:47;;;;;;;9.47;8.47;;;;;;;1.44;45.42;99436.53;4161346;28;20298;-39
2022/03/07 00:55:50;;;;;;;8.53;7.60;;;;;;;1.52;46.15;99435.97;4157609;28;20238;-39
2022/03/07 00:57:52;;;;;;;11.13;8.80;;;;;;;2.35;44.41;99424.75;4159511;28;20265;-40
2022/03/07 00:59:55;;;;;;;10.43;8.90;;;;;;;1.36;44.90;99467.69;4159863;28;20548;-38
2022/03/07 01:01:56;;;;;;;9.87;8.73;;;;;;;1.20;45.98;99441.69;4158702;28;21031;-40
2022/03/07 01:03:58;;;;;;;10.70;8.83;;;;;;;2.18;44.96;99417.28;4167804;28;20626;-41
2022/03/07 01:06:00;;;;;;;9.03;8.00;;;;;;;1.82;44.55;99440.81;4151821;28;20354;-42
2022/03/07 01:08:03;;;;;;;8.63;7.67;;;;;;;0.83;46.15;99469.53;4159161;28;20231;-41
2022/03/07 01:10:05;;;;;;;9.33;8.33;;;;;;;1.30;45.27;99455.81;4159053;28;20245;-39
2022/03/07 01:12:07;;;;;;;9.90;8.10;;;;;;;1.33;46.03;99439.91;4159582;28;20598;-37
2022/03/07 01:14:09;;;;;;;10.73;8.77;;;;;;;0.65;46.75;99454.13;4158959;28;20244;-39
2022/03/07 01:16:11;;;;;;;9.90;8.33;;;;;;;2.11;44.94;99409.03;4159243;28;20242;-37
2022/03/07 01:18:13;;;;;;;9.20;7.87;;;;;;;0.98;46.22;99450.19;4159349;28;20266;-39
2022/03/07 01:20:15;;;;;;;9.83;8.80;;;;;;;1.89;44.98;99430.72;4159448;28;20239;-40
2022/03/07 01:22:16;;;;;;;11.73;8.33;;;;;;;1.14;46.65;99426.44;4160107;28;20230;-39
2022/03/07 01:24:19;;;;;;;9.33;8.33;;;;;;;1.69;45.39;99414.66;4159130;28;20245;-38
2022/03/07 01:26:21;;;;;;;10.43;8.90;;;;;;;1.89;45.13;99407.97;4159058;28;20244;-40
2022/03/07 01:28:23;;;;;;;9.83;8.43;;;;;;;1.46;45.19;99441.66;4158377;28;20230;-39
2022/03/07 01:30:24;;;;;;;9.60;8.60;;;;;;;0.85;46.95;99447.56;4141817;28;20246;-39
2022/03/07 01:32:26;;;;;;;10.77;8.50;;;;;;;0.53;47.98;99437.47;4158935;28;20230;-41
2022/03/07 01:34:28;;;;;;;9.93;8.93;;;;;;;0.89;47.56;99427.25;4156274;28;20755;-37
2022/03/07 01:36:29;;;;;;;9.67;8.10;;;;;;;1.42;46.97;99404.34;4155041;28;20404;-39
2022/03/07 01:38:31;;;;;;;9.53;8.53;;;;;;;1.02;47.27;99419.41;4158888;28;20665;-40
2022/03/07 01:40:33;;;;;;;10.40;7.93;;;;;;;-0.15;48.85;99443.63;4156624;28;20285;-41
2022/03/07 01:42:35;;;;;;;10.73;9.10;;;;;;;0.90;48.64;99397.47;4158430;28;20693;-35
2022/03/07 01:44:37;;;;;;;10.00;9.00;;;;;;;0.64;47.17;99438.53;4163676;28;20316;-40
2022/03/07 01:46:39;;;;;;;9.77;8.27;;;;;;;0.56;48.39;99412.88;4161073;28;20245;-39
2022/03/07 01:48:41;;;;;;;9.10;7.60;;;;;;;0.86;48.56;99399.47;4158740;28;20327;-40
2022/03/07 01:50:43;;;;;;;9.10;8.20;;;;;;;0.85;48.00;99392.59;4159080;28;20536;-39
2022/03/07 01:52:48;;;;;;;8.43;7.53;;;;;;;0.17;48.30;99428.47;4163806;28;20244;-37
2022/03/07 01:54:49;;;;;;;9.57;8.10;;;;;;;1.31;46.81;99412.16;4160005;28;20247;-42
2022/03/07 01:56:53;;;;;;;9.77;8.73;;;;;;;1.23;47.05;99383.88;4158335;28;20256;-37
2022/03/07 01:58:54;;;;;;;11.77;9.13;;;;;;;1.39;46.81;99382.78;4158143;28;20712;-36
2022/03/07 02:00:56;;;;;;;10.07;8.57;;;;;;;0.99;47.72;99399.50;4158831;28;20304;-38
2022/03/07 02:02:58;;;;;;;11.37;8.70;;;;;;;1.61;45.96;99385.56;4166324;28;20244;-37
2022/03/07 02:05:00;;;;;;;10.83;8.67;;;;;;;0.08;47.84;99423.84;4151522;28;20273;-43
2022/03/07 02:07:02;;;;;;;9.60;8.13;;;;;;;1.36;47.03;99380.38;4150815;28;20292;-40
2022/03/07 02:09:08;;;;;;;9.33;7.90;;;;;;;0.94;47.50;99398.97;4158473;28;20264;-38
2022/03/07 02:11:10;;;;;;;10.17;8.60;;;;;;;0.11;49.31;99402.75;4157720;28;20266;-40
2022/03/07 02:13:14;;;;;;;8.43;7.57;;;;;;;0.44;48.55;99398.00;4157982;28;20792;-39
2022/03/07 02:15:16;;;;;;;9.93;8.17;;;;;;;0.55;47.76;99400.75;4158598;28;20267;-40
2022/03/07 02:17:18;;;;;;;9.60;7.10;;;;;;;0.17;47.94;99418.00;4157643;28;20237;-37
2022/03/07 02:19:20;;;;;;;8.93;8.03;;;;;;;1.14;47.84;99368.81;4166670;28;20295;-37
2022/03/07 02:21:22;;;;;;;8.97;7.80;;;;;;;0.76;47.18;99411.53;4161535;28;20238;-41
2022/03/07 02:23:24;;;;;;;10.07;8.10;;;;;;;0.83;47.55;99393.63;4161159;28;20231;-37
2022/03/07 02:25:25;;;;;;;10.00;8.10;;;;;;;1.58;46.47;99383.16;4158545;28;20238;-38
2022/03/07 02:27:27;;;;;;;9.93;8.40;;;;;;;1.39;46.69;99382.78;4138638;28;20290;-36
2022/03/07 02:29:30;;;;;;;10.53;7.70;;;;;;;0.82;47.60;99392.78;4157722;28;20239;-38
2022/03/07 02:31:34;;;;;;;9.53;8.27;;;;;;;0.34;48.76;99397.78;4158534;28;20244;-38
2022/03/07 02:33:37;;;;;;;10.17;8.07;;;;;;;1.07;46.82;99399.81;4155871;28;20241;-42
2022/03/07 02:35:39;;;;;;;9.10;8.13;;;;;;;-0.09;49.81;99395.34;4152196;28;20230;-39
2022/03/07 02:37:41;;;;;;;9.27;8.17;;;;;;;0.90;47.75;99390.50;4156518;28;20240;-42
2022/03/07 02:39:44;;;;;;;9.53;8.00;;;;;;;-0.42;49.40;99420.09;4158244;28;20730;-42
2022/03/07 02:42:06;;;;;;;9.10;7.80;;;;;;;1.68;47.08;99347.47;4151051;28;20328;-41
2022/03/07 02:44:08;;;;;;;9.97;7.90;;;;;;;0.62;48.52;99388.09;4158126;28;20299;-40
2022/03/07 02:46:10;;;;;;;9.67;7.87;;;;;;;0.50;49.41;99361.81;4158360;28;20478;-38
2022/03/07 02:48:12;;;;;;;9.70;8.10;;;;;;;0.77;47.47;99387.88;4158980;28;20238;-41
2022/03/07 02:50:14;;;;;;;12.23;8.03;;;;;;;1.19;47.49;99368.47;4161650;28;20671;-40
2022/03/07 02:52:18;;;;;;;9.57;7.83;;;;;;;1.23;47.21;99359.47;4157886;28;20233;-38
2022/03/07 02:54:20;;;;;;;8.97;8.07;;;;;;;0.92;47.51;99378.13;4157337;28;20711;-40
2022/03/07 02:56:22;;;;;;;9.67;8.67;;;;;;;-0.49;49.69;99406.56;4158083;28;20234;-40
2022/03/07 02:58:24;;;;;;;9.67;8.67;;;;;;;0.51;49.47;99357.41;4158348;28;20228;-39
2022/03/07 03:00:26;;;;;;;10.10;7.83;;;;;;;-0.46;49.72;99403.78;4157344;28;20283;-42
2022/03/07 03:02:28;;;;;;;10.90;8.47;;;;;;;1.17;48.32;99350.25;4157843;28;20581;-42
2022/03/07 03:04:29;;;;;;;8.53;7.67;;;;;;;-0.03;49.13;99402.78;4155996;28;20616;-40
2022/03/07 03:06:31;;;;;;;10.07;7.80;;;;;;;-0.27;50.24;99403.44;4153455;28;20234;-43
2022/03/07 03:08:33;;;;;;;9.57;8.30;;;;;;;1.11;47.72;99382.94;4157626;28;20659;-40
2022/03/07 03:10:34;;;;;;;9.93;7.60;;;;;;;0.69;49.25;99365.78;4158630;28;20233;-39
2022/03/07 03:12:36;;;;;;;9.67;8.33;;;;;;;0.71;49.16;99358.66;4158961;28;20252;-42
2022/03/07 03:14:39;;;;;;;11.00;8.67;;;;;;;1.67;46.63;99364.13;4163255;28;20237;-41
2022/03/07 03:16:41;;;;;;;9.00;8.07;;;;;;;1.48;46.49;99385.59;4166768;28;20298;-43
2022/03/07 03:18:43;;;;;;;11.07;8.80;;;;;;;1.29;46.92;99386.06;4156968;28;20235;-41
2022/03/07 03:20:46;;;;;;;9.70;8.57;;;;;;;0.11;48.35;99412.34;4158069;28;20244;-41
2022/03/07 03:22:48;;;;;;;9.43;8.43;;;;;;;0.14;49.22;99393.84;4157419;28;20287;-39
2022/03/07 03:24:50;;;;;;;11.50;8.63;;;;;;;1.61;46.60;99366.34;4156880;28;20325;-40
2022/03/07 03:26:52;;;;;;;9.90;8.50;;;;;;;1.08;47.14;99393.63;4157157;28;20671;-41
2022/03/07 03:28:53;;;;;;;11.07;9.43;;;;;;;1.79;46.15;99361.56;4158146;28;20252;-40
2022/03/07 03:30:56;;;;;;;10.50;8.23;;;;;;;0.95;47.40;99387.53;4157471;28;20232;-43
2022/03/07 03:32:58;;;;;;;9.17;8.27;;;;;;;1.25;46.07;99402.09;4157032;28;20229;-43
2022/03/07 03:35:00;;;;;;;9.47;8.00;;;;;;;0.61;47.65;99405.53;4141628;28;20354;-45
2022/03/07 03:37:02;;;;;;;12.10;8.30;;;;;;;0.94;47.53;99386.69;4156300;28;20233;-42
2022/03/07 03:39:04;;;;;;;9.40;8.40;;;;;;;-0.67;49.50;99428.63;4156920;28;20289;-40
2022/03/07 03:41:05;;;;;;;9.67;8.67;;;;;;;0.17;48.10;99406.72;4157429;28;20229;-39
2022/03/07 03:43:07;;;;;;;12.30;8.80;;;;;;;0.52;47.80;99393.91;4156803;28;20233;-41
2022/03/07 03:45:10;;;;;;;9.67;8.47;;;;;;;0.33;48.05;99396.06;4158385;28;20236;-40
2022/03/07 03:47:11;;;;;;;9.30;8.30;;;;;;;-0.26;49.00;99410.34;4158770;28;20749;-43
2022/03/07 03:49:13;;;;;;;9.90;8.13;;;;;;;-1.20;49.57;99436.16;4157387;28;20240;-42
2022/03/07 03:51:15;;;;;;;9.30;8.30;;;;;;;-1.43;50.54;99424.47;4160292;28;20709;-40
2022/03/07 03:53:17;;;;;;;9.33;8.27;;;;;;;-0.98;49.86;99418.28;4160276;28;20256;-41
2022/03/07 03:55:18;;;;;;;9.17;8.07;;;;;;;-1.08;50.47;99428.44;4160176;28;20237;-38
2022/03/07 03:57:20;;;;;;;10.33;8.73;;;;;;;-1.14;50.54;99421.00;4160486;28;20709;-41
2022/03/07 03:59:22;;;;;;;9.60;8.60;;;;;;;0.20;48.51;99385.63;4168825;28;20232;-43
2022/03/07 04:01:24;;;;;;;10.07;8.13;;;;;;;1.01;47.24;99365.38;4159310;28;20240;-43
2022/03/07 04:03:27;;;;;;;9.73;8.73;;;;;;;-0.65;49.69;99413.69;4167654;28;20260;-43
2022/03/07 04:05:28;;;;;;;10.23;8.23;;;;;;;0.44;47.67;99392.75;4153625;28;20228;-41
2022/03/07 04:07:30;;;;;;;10.23;9.17;;;;;;;-0.10;49.16;99404.13;4158817;28;20265;-41
2022/03/07 04:09:32;;;;;;;10.60;9.50;;;;;;;-0.29;50.18;99405.31;4160101;28;20259;-42
2022/03/07 04:11:34;;;;;;;10.63;9.53;;;;;;;0.69;48.70;99371.00;4164542;28;20258;-43
2022/03/07 04:13:36;;;;;;;10.70;9.03;;;;;;;-1.08;50.50;99436.25;4169028;28;20460;-39
2022/03/07 04:15:38;;;;;;;11.10;9.00;;;;;;;-0.25;50.49;99396.34;4165455;28;20236;-36
2022/03/07 04:17:42;;;;;;;10.50;8.83;;;;;;;-0.24;50.22;99400.63;4162939;28;20248;-40
2022/03/07 04:19:43;;;;;;;11.90;9.27;;;;;;;-0.31;49.90;99416.78;4156723;28;20760;-39
2022/03/07 04:21:45;;;;;;;14.10;9.63;;;;;;;-0.01;50.23;99398.31;4159978;28;20229;-40
2022/03/07 04:23:47;;;;;;;9.87;8.80;;;;;;;-0.76;51.63;99428.25;4161211;28;20247;-39
2022/03/07 04:25:49;;;;;;;12.50;10.33;;;;;;;0.14;50.37;99397.28;4159490;28;20233;-41
2022/03/07 04:27:50;;;;;;;10.30;8.70;;;;;;;0.37;50.37;99381.88;4160712;28;20240;-38
2022/03/07 04:29:53;;;;;;;10.30;9.17;;;;;;;-0.71;52.31;99426.19;4160236;28;20302;-40
2022/03/07 04:31:55;;;;;;;9.50;8.50;;;;;;;-1.46;54.29;99435.91;4159423;28;20236;-40
2022/03/07 04:33:57;;;;;;;9.33;8.43;;;;;;;-0.77;52.32;99434.41;4159615;28;20694;-39
2022/03/07 04:35:59;;;;;;;10.23;7.37;;;;;;;-0.83;53.05;99421.72;4153212;28;20682;-40
2022/03/07 04:38:01;;;;;;;11.50;8.60;;;;;;;-1.50;55.42;99424.00;4156924;28;20272;-40
2022/03/07 04:40:04;;;;;;;9.97;7.80;;;;;;;-1.68;54.08;99449.34;4158480;28;20259;-43
2022/03/07 04:42:06;;;;;;;8.40;7.50;;;;;;;-0.18;52.32;99397.63;4156471;28;20263;-42
2022/03/07 04:44:08;;;;;;;8.83;7.87;;;;;;;-1.19;54.19;99430.00;4158703;28;20236;-41
2022/03/07 04:46:10;;;;;;;9.23;8.23;;;;;;;-1.93;55.75;99447.31;4159560;28;20747;-42
2022/03/07 04:48:11;;;;;;;8.10;7.07;;;;;;;-1.70;55.31;99443.41;4160381;28;20236;-41
2022/03/07 04:50:13;;;;;;;10.47;8.23;;;;;;;-1.00;54.23;99420.16;4159513;28;20244;-42
2022/03/07 04:52:15;;;;;;;10.70;8.80;;;;;;;-0.49;54.19;99393.53;4159721;28;20239;-38
2022/03/07 04:54:17;;;;;;;7.60;6.83;;;;;;;-1.71;55.89;99441.75;4157210;28;20234;-39
2022/03/07 04:56:19;;;;;;;8.00;6.77;;;;;;;-1.20;55.46;99416.13;4159044;28;20233;-39
2022/03/07 04:58:21;;;;;;;10.50;7.30;;;;;;;-1.46;56.47;99421.13;4158999;28;20300;-41
2022/03/07 05:00:23;;;;;;;8.00;7.17;;;;;;;-1.56;56.46;99426.94;4157902;28;20224;-43
2022/03/07 05:02:24;;;;;;;8.03;6.90;;;;;;;-1.03;55.51;99416.91;4157358;28;20345;-41
2022/03/07 05:04:26;;;;;;;7.50;6.70;;;;;;;-1.70;56.99;99432.97;4157227;28;20232;-41
2022/03/07 05:06:30;;;;;;;8.03;6.57;;;;;;;-0.91;54.94;99416.97;4155645;28;20815;-40
2022/03/07 05:08:32;;;;;;;7.87;6.97;;;;;;;-0.82;54.72;99409.50;4158484;28;20286;-41
2022/03/07 05:10:34;;;;;;;9.63;6.60;;;;;;;-0.45;53.59;99430.72;4159570;28;20233;-40
2022/03/07 05:12:36;;;;;;;7.80;6.60;;;;;;;-1.60;56.27;99444.56;4158037;28;20229;-39
2022/03/07 05:14:38;;;;;;;8.23;7.00;;;;;;;-0.97;54.54;99442.59;4157575;28;20290;-45
2022/03/07 05:16:39;;;;;;;9.67;6.87;;;;;;;-1.69;56.05;99458.97;4157461;28;20343;-41
2022/03/07 05:18:41;;;;;;;7.43;6.40;;;;;;;-1.05;55.69;99424.81;4159006;28;20225;-41
2022/03/07 05:20:43;;;;;;;7.67;6.90;;;;;;;-0.62;54.14;99439.63;4141046;28;20307;-40
2022/03/07 05:22:58;;;;;;;9.50;7.27;;;;;;;-0.52;54.14;99431.09;4158969;28;20236;-38
2022/03/07 05:25:00;;;;;;;8.40;7.07;;;;;;;-0.45;53.41;99431.56;4159230;28;20833;-39
2022/03/07 05:27:02;;;;;;;8.73;6.77;;;;;;;0.25;52.59;99414.91;4158336;28;20267;-41
2022/03/07 05:29:05;;;;;;;7.53;6.73;;;;;;;-1.85;56.34;99479.84;4159236;28;20237;-40
2022/03/07 05:31:11;;;;;;;8.37;6.27;;;;;;;-1.04;55.51;99443.91;4156693;28;20228;-44
2022/03/07 05:33:13;;;;;;;8.43;7.37;;;;;;;-1.19;54.41;99462.16;4157620;28;20241;-44
2022/03/07 05:35:16;;;;;;;8.47;6.93;;;;;;;-0.20;53.56;99409.94;4159385;28;20258;-44
2022/03/07 05:37:18;;;;;;;7.87;7.10;;;;;;;-0.73;54.51;99445.50;4159073;28;20236;-42
2022/03/07 05:39:20;;;;;;;8.03;6.37;;;;;;;-1.05;54.48;99468.34;4158377;28;20243;-44
2022/03/07 05:41:21;;;;;;;7.97;6.67;;;;;;;-0.74;54.90;99428.16;4159102;28;20638;-42
2022/03/07 05:43:23;;;;;;;8.40;6.67;;;;;;;-1.69;57.14;99451.13;4158639;28;20232;-42
2022/03/07 05:45:25;;;;;;;7.23;6.00;;;;;;;-0.96;54.80;99437.28;4158456;28;20286;-43
2022/03/07 05:47:26;;;;;;;7.03;6.33;;;;;;;-1.00;55.11;99438.41;4162620;28;20238;-41
2022/03/07 05:49:28;;;;;;;9.70;6.53;;;;;;;-1.24;54.76;99453.78;4163662;28;20241;-41
2022/03/07 05:51:31;;;;;;;8.73;7.17;;;;;;;-1.55;56.37;99455.56;4158929;28;20231;-39
2022/03/07 05:53:32;;;;;;;6.67;5.93;;;;;;;-0.42;54.34;99418.31;4159096;28;20304;-40
2022/03/07 05:55:34;;;;;;;7.60;6.67;;;;;;;-0.27;52.79;99420.91;4159206;28;20235;-44
2022/03/07 05:57:36;;;;;;;8.53;6.63;;;;;;;0.35;51.82;99413.34;4158463;28;20548;-38
2022/03/07 05:59:37;;;;;;;10.37;7.20;;;;;;;-0.94;53.91;99458.94;4159090;28;20290;-44
2022/03/07 06:01:42;;;;;;;8.87;7.10;;;;;;;-0.28;53.67;99421.81;4159028;28;20234;-43
2022/03/07 06:03:43;;;;;;;7.93;6.47;;;;;;;-0.36;53.53;99425.78;4157831;28;20243;-41
2022/03/07 06:05:45;;;;;;;7.17;6.47;;;;;;;-1.38;53.97;99485.88;4158509;28;20242;-41
2022/03/07 06:07:50;;;;;;;7.43;6.33;;;;;;;-0.27;53.08;99433.97;4159289;28;20306;-42
2022/03/07 06:09:52;;;;;;;8.73;6.53;;;;;;;-1.63;55.05;99483.81;4157890;28;20259;-42
2022/03/07 06:11:54;;;;;;;8.33;6.70;;;;;;;-2.27;57.29;99489.13;4158899;28;20747;-41
2022/03/07 06:13:55;;;;;;;8.03;6.97;;;;;;;0.02;52.77;99419.03;4158429;28;20279;-40
2022/03/07 06:15:57;;;;;;;7.53;6.67;;;;;;;0.09;51.34;99450.84;4174148;28;20597;-41
2022/03/07 06:17:59;;;;;;;8.90;6.97;;;;;;;-0.20;52.13;99456.97;4156749;28;20655;-42
2022/03/07 06:20:01;;;;;;;9.57;6.70;;;;;;;-0.32;52.38;99457.75;4158430;28;20231;-41
2022/03/07 06:22:03;;;;;;;7.30;6.40;;;;;;;0.11;51.91;99435.88;4157828;28;20785;-40
2022/03/07 06:24:05;;;;;;;7.43;6.73;;;;;;;-0.49;51.96;99484.94;4158381;28;20661;-38
2022/03/07 06:26:07;;;;;;;8.00;6.23;;;;;;;0.05;51.31;99454.59;4158107;28;20255;-41
2022/03/07 06:28:09;;;;;;;10.00;7.03;;;;;;;0.24;50.65;99444.59;4157506;28;20615;-39
2022/03/07 06:30:11;;;;;;;7.73;6.93;;;;;;;0.39;50.68;99443.59;4158352;28;20232;-39
2022/03/07 06:32:12;;;;;;;9.90;6.70;;;;;;;0.03;51.40;99462.53;4158116;28;20237;-39
2022/03/07 06:34:14;;;;;;;8.00;6.77;;;;;;;-0.09;51.73;99473.75;4157039;28;20286;-42
2022/03/07 06:36:16;;;;;;;7.10;6.40;;;;;;;-1.01;53.39;99488.09;4152311;28;20236;-42
2022/03/07 06:38:19;;;;;;;7.43;6.20;;;;;;;-1.57;53.83;99506.97;4159150;28;20244;-42
2022/03/07 06:40:22;;;;;;;7.93;6.33;;;;;;;-1.54;54.22;99500.75;4157464;28;20240;-41
2022/03/07 06:42:24;;;;;;;7.37;6.17;;;;;;;-1.09;53.96;99480.72;4158457;28;20236;-43
2022/03/07 06:44:25;;;;;;;9.30;6.93;;;;;;;-0.27;52.12;99434.78;4158100;28;20232;-40
2022/03/07 06:46:28;;;;;;;7.10;6.40;;;;;;;-0.74;52.52;99478.59;4157699;28;20229;-38
2022/03/07 06:48:31;;;;;;;7.23;6.53;;;;;;;-0.28;52.53;99448.81;4157991;28;20232;-38
2022/03/07 06:50:32;;;;;;;9.37;7.00;;;;;;;-0.53;52.30;99475.63;4157790;28;20224;-43
2022/03/07 06:52:34;;;;;;;9.30;7.27;;;;;;;-0.09;51.42;99473.75;4156990;28;20228;-38
2022/03/07 06:54:36;;;;;;;7.97;6.70;;;;;;;-1.04;53.60;99486.50;4157478;28;20605;-40
2022/03/07 06:56:38;;;;;;;8.47;7.57;;;;;;;-0.87;53.18;99482.88;4158462;28;20233;-43
2022/03/07 06:58:41;;;;;;;7.87;6.90;;;;;;;-0.31;51.94;99469.03;4166347;28;20254;-42
2022/03/07 07:00:48;;;;;;;7.93;6.77;;;;;;;-1.53;54.74;99491.97;4157784;28;20220;-40
2022/03/07 07:02:50;;;;;;;7.67;6.67;;;;;;;-1.42;54.60;99493.97;4157785;28;20532;-40
2022/03/07 07:04:53;;;;;;;8.07;6.83;;;;;;;-1.61;54.08;99502.00;4151440;28;20616;-41
2022/03/07 07:06:54;;;;;;;8.83;6.93;;;;;;;-1.81;54.51;99517.00;4157206;28;20236;-42
2022/03/07 07:08:56;;;;;;;8.87;7.97;;;;;;;-1.32;54.45;99474.25;4164769;28;20264;-41
2022/03/07 07:10:58;;;;;;;9.23;7.47;;;;;;;-1.33;53.67;99494.25;4156847;28;20236;-42
2022/03/07 07:12:59;;;;;;;10.57;7.50;;;;;;;-1.36;54.55;99491.88;4155781;28;20286;-44
2022/03/07 07:15:02;;;;;;;7.70;6.90;;;;;;;-0.66;52.61;99485.97;4155326;28;20613;-39
2022/03/07 07:17:04;;;;;;;8.60;7.57;;;;;;;-0.49;53.04;99461.44;4157118;28;20714;-39
2022/03/07 07:19:06;;;;;;;9.97;7.50;;;;;;;-0.80;53.51;99470.28;4159143;28;20237;-39
2022/03/07 07:21:08;;;;;;;8.33;7.07;;;;;;;-0.09;52.26;99468.53;4158918;28;20221;-41
2022/03/07 07:23:09;;;;;;;10.17;6.77;;;;;;;-1.99;54.46;99520.63;4155811;28;20251;-44
2022/03/07 07:25:11;;;;;;;6.97;6.10;;;;;;;-1.10;52.88;99502.53;4163649;28;20707;-44
2022/03/07 07:27:13;;;;;;;9.20;6.77;;;;;;;-1.68;54.01;99517.16;4160782;28;20866;-37
2022/03/07 07:29:15;;;;;;;8.50;6.90;;;;;;;-0.73;52.62;99489.91;4160501;28;20706;-42
2022/03/07 07:31:16;;;;;;;10.47;7.77;;;;;;;-1.48;53.61;99518.63;4161168;28;20271;-41
2022/03/07 07:33:18;;;;;;;9.53;7.10;;;;;;;-1.40;53.12;99512.97;4160601;28;20744;-44
2022/03/07 07:35:20;;;;;;;10.00;8.33;;;;;;;-0.35;51.59;99471.88;4154112;28;20599;-43
2022/03/07 07:37:21;;;;;;;8.50;6.47;;;;;;;-1.17;51.72;99514.25;4160884;28;20229;-41
2022/03/07 07:39:23;;;;;;;10.13;7.80;;;;;;;-1.20;51.47;99525.72;4164267;28;20389;-39
2022/03/07 07:41:25;;;;;;;7.37;5.80;;;;;;;-1.41;52.82;99537.38;4165250;28;20220;-42
2022/03/07 07:43:26;;;;;;;8.70;7.20;;;;;;;-1.56;52.91;99516.47;4160630;28;20228;-38
2022/03/07 07:45:28;;;;;;;9.23;7.33;;;;;;;-0.72;52.76;99499.38;4159205;28;20263;-43
2022/03/07 07:47:30;;;;;;;8.33;7.33;;;;;;;-0.41;50.97;99505.38;4159822;28;20236;-43
2022/03/07 07:49:31;;;;;;;9.83;7.27;;;;;;;-0.79;51.49;99513.75;4160664;28;20515;-41
2022/03/07 07:51:33;;;;;;;9.73;7.47;;;;;;;-0.23;50.79;99499.00;4160852;28;20624;-41
2022/03/07 07:53:35;;;;;;;8.30;6.90;;;;;;;-1.39;52.33;99538.13;4164683;28;20607;-42
2022/03/07 07:55:37;;;;;;;7.87;6.83;;;;;;;-0.42;50.63;99493.22;4158764;28;20341;-46
2022/03/07 07:57:41;;;;;;;9.13;7.30;;;;;;;-0.02;49.85;99488.13;4157269;28;20236;-42
2022/03/07 07:59:43;;;;;;;9.03;7.23;;;;;;;-0.10;49.59;99490.38;4159640;28;20612;-43
2022/03/07 08:02:05;;;;;;;9.73;7.33;;;;;;;-0.67;49.95;99525.22;4153648;28;20766;-43
2022/03/07 08:04:07;;;;;;;8.73;7.00;;;;;;;-0.92;50.23;99553.66;4160007;28;20267;-41
2022/03/07 08:06:09;;;;;;;8.47;6.97;;;;;;;-0.71;50.61;99509.75;4156555;28;20306;-41
2022/03/07 08:08:10;;;;;;;8.73;7.30;;;;;;;-0.58;49.68;99541.19;4160210;28;20245;-43
2022/03/07 08:10:14;;;;;;;10.00;8.57;;;;;;;0.15;47.87;99519.25;4160260;28;20283;-41
2022/03/07 08:12:18;;;;;;;7.97;7.17;;;;;;;-0.16;48.40;99523.81;4158124;28;20271;-41
2022/03/07 08:14:20;;;;;;;10.10;7.60;;;;;;;0.28;48.01;99521.94;4159594;28;20612;-42
2022/03/07 08:16:22;;;;;;;8.23;6.77;;;;;;;-0.41;49.18;99545.38;4160498;28;20641;-42
2022/03/07 08:18:24;;;;;;;12.13;8.43;;;;;;;0.57;47.44;99501.72;4160452;28;20287;-42
2022/03/07 08:20:27;;;;;;;10.77;8.10;;;;;;;-0.44;48.44;99553.41;4160232;28;20237;-38
2022/03/07 08:22:29;;;;;;;9.93;7.97;;;;;;;0.09;48.30;99513.56;4160243;28;20233;-40
2022/03/07 08:24:31;;;;;;;9.20;7.87;;;;;;;-0.07;48.72;99518.94;4159215;28;20469;-41
2022/03/07 08:26:33;;;;;;;9.77;7.63;;;;;;;-0.19;48.88;99531.00;4160027;28;20228;-41
2022/03/07 08:28:34;;;;;;;11.17;7.83;;;;;;;0.32;47.98;99519.97;4158882;28;20695;-41
2022/03/07 08:30:36;;;;;;;9.00;7.40;;;;;;;1.03;46.90;99515.34;4159074;28;20233;-42
2022/03/07 08:32:40;;;;;;;9.73;7.60;;;;;;;0.51;47.83;99533.50;4160141;28;20237;-39
2022/03/07 08:34:42;;;;;;;8.77;7.70;;;;;;;0.55;47.78;99524.53;4156204;28;20714;-41
2022/03/07 08:36:43;;;;;;;11.27;8.47;;;;;;;0.25;47.69;99550.06;4157466;28;20226;-38
2022/03/07 08:38:45;;;;;;;9.40;7.67;;;;;;;-0.52;49.62;99555.63;4142437;28;20230;-39
2022/03/07 08:40:48;;;;;;;9.17;7.97;;;;;;;-0.70;49.56;99573.28;4160158;28;20299;-39
2022/03/07 08:42:50;;;;;;;9.13;7.53;;;;;;;0.16;48.55;99535.78;4160464;28;20245;-39
2022/03/07 08:44:53;;;;;;;10.80;8.27;;;;;;;0.05;48.01;99570.44;4167076;28;20253;-38
2022/03/07 08:46:55;;;;;;;12.33;8.80;;;;;;;0.51;47.56;99541.34;4160351;28;20246;-41
2022/03/07 08:48:57;;;;;;;9.00;7.30;;;;;;;0.12;47.52;99578.75;4159679;28;20320;-36
2022/03/07 08:50:58;;;;;;;9.10;7.50;;;;;;;-0.24;48.91;99560.03;4160224;28;20699;-40
2022/03/07 08:53:00;;;;;;;9.27;7.73;;;;;;;-0.58;48.86;99585.59;4159932;28;20257;-43
2022/03/07 08:55:03;;;;;;;9.07;7.27;;;;;;;1.10;47.39;99513.97;4151410;28;20258;-38
2022/03/07 08:57:05;;;;;;;9.60;8.60;;;;;;;0.71;48.35;99542.69;4160036;28;20657;-41
2022/03/07 08:59:06;;;;;;;12.43;8.17;;;;;;;1.10;47.39;99532.31;4168496;28;20234;-40
2022/03/07 09:01:09;;;;;;;9.03;7.80;;;;;;;0.44;49.04;99552.34;4159145;28;20870;-40
2022/03/07 09:03:11;;;;;;;10.43;8.50;;;;;;;0.84;47.63;99560.22;4159589;28;20254;-35
2022/03/07 09:05:13;;;;;;;9.13;7.83;;;;;;;1.17;47.41;99541.41;4153305;28;20269;-41
2022/03/07 09:07:15;;;;;;;9.37;7.97;;;;;;;0.16;48.33;99582.84;4159139;28;20250;-41
2022/03/07 09:09:17;;;;;;;10.00;8.43;;;;;;;0.51;47.86;99567.53;4159570;28;20237;-42
2022/03/07 09:11:33;;;;;;;10.67;8.63;;;;;;;0.72;47.45;99570.53;4160406;28;20317;-39
2022/03/07 09:13:34;;;;;;;10.37;7.67;;;;;;;0.58;48.14;99555.75;4158692;28;20293;-42
2022/03/07 09:15:36;;;;;;;10.53;8.23;;;;;;;0.81;47.60;99552.56;4159443;28;20231;-42
2022/03/07 09:17:38;;;;;;;9.70;8.40;;;;;;;1.20;47.42;99549.06;4159359;28;20635;-40
2022/03/07 09:19:39;;;;;;;11.03;8.40;;;;;;;1.83;46.69;99538.66;4158912;28;20301;-36
2022/03/07 09:21:41;;;;;;;10.67;8.50;;;;;;;0.27;48.52;99590.03;4159593;28;20241;-39
2022/03/07 09:23:46;;;;;;;11.40;9.33;;;;;;;1.87;46.40;99556.69;4164794;28;20598;-42
2022/03/07 09:25:48;;;;;;;9.60;8.60;;;;;;;1.11;47.01;99604.72;4160211;28;20905;-40
2022/03/07 09:27:50;;;;;;;12.17;8.90;;;;;;;0.85;48.13;99580.19;4159317;28;20275;-41
2022/03/07 09:29:51;;;;;;;13.67;9.40;;;;;;;2.93;45.20;99557.88;4156130;28;20238;-40
2022/03/07 09:31:53;;;;;;;11.77;8.13;;;;;;;2.60;44.98;99589.09;4158158;28;20236;-43
2022/03/07 09:33:55;;;;;;;10.63;9.13;;;;;;;1.35;46.58;99615.31;4158543;28;20254;-38
2022/03/07 09:35:57;;;;;;;11.77;8.73;;;;;;;1.06;47.44;99606.78;4152650;28;20274;-40